sensor_id;sensor_type;location;lat;lon;timestamp;pressure;altitude;pressure_sealevel;temperature;humidity
71642;BME280;60657;50.122;14.468;2023-07-31T00:01:41;98105.07647012173;;;17.298771648737315;70.3408865491722
71642;BME280;60657;50.122;14.468;2023-07-31T00:04:44;98107.59335325938;;;17.341496910048065;70.95315480277714
71642;BME280;60657;50.122;14.468;2023-07-31T00:07:46;98115.09842160826;;;17.309452964065002;71.54444190127413
71642;BME280;60657;50.122;14.468;2023-07-31T00:10:50;98105.21342881898;;;17.25070572976272;72.67170214389257
71642;BME280;60657;50.122;14.468;2023-07-31T00:13:53;98099.95072941003;;;17.33615625238422;72.13382162203403
71642;BME280;60657;50.122;14.468;2023-07-31T00:16:55;98115.14401577706;;;17.31746395056077;72.38178072785534
71642;BME280;60657;50.122;14.468;2023-07-31T00:19:58;98106.17335450994;;;17.19996948195621;72.63546196688792
71642;BME280;60657;50.122;14.468;2023-07-31T00:23:00;98106.35371616353;;;17.14923323414969;73.05889982452125
71642;BME280;60657;50.122;14.468;2023-07-31T00:26:02;98107.35651074936;;;17.04509040970474;72.95780880445564
71642;BME280;60657;50.122;14.468;2023-07-31T00:29:06;98098.2053464542;;;17.05577172503243;71.89921416037232
71642;BME280;60657;50.122;14.468;2023-07-31T00:32:08;98098.160661686;;;17.077134355687804;72.21393148699168
71642;BME280;60657;50.122;14.468;2023-07-31T00:35:10;98101.41097768603;;;17.111848630502784;71.89539940489814
71642;BME280;60657;50.122;14.468;2023-07-31T00:38:12;98104.97390782516;;;17.061112382696273;71.47577630273899
71642;BME280;60657;50.122;14.468;2023-07-31T00:41:15;98108.4462632029;;;17.015716792553597;72.29213397421225
71642;BME280;60657;50.122;14.468;2023-07-31T00:44:17;98098.24994324424;;;17.039749752040898;72.05561913481345
71642;BME280;60657;50.122;14.468;2023-07-31T00:47:19;98098.42745074374;;;17.015716792553597;71.80766002899215
71642;BME280;60657;50.122;14.468;2023-07-31T00:50:22;98102.67901521968;;;17.010376134889754;72.12046997787442
71642;BME280;60657;50.122;14.468;2023-07-31T00:53:26;98104.41461759245;;;16.972991531242847;71.67605096513313
71642;BME280;60657;50.122;14.468;2023-07-31T00:56:29;98102.59086761429;;;17.04776073853666;70.63271534294651
71642;BME280;60657;50.122;14.468;2023-07-31T00:59:32;98100.85469269795;;;17.077134355687804;70.5621423666743
71642;BME280;60657;50.122;14.468;2023-07-31T01:02:35;98104.97390782516;;;17.06378271152819;70.15205615320058
71642;BME280;60657;50.122;14.468;2023-07-31T01:05:41;98098.160661686;;;17.095826657511253;69.85259784847791
71642;BME280;60657;50.122;14.468;2023-07-31T01:08:54;98108.91484413443;;;17.14923323414969;70.05287251087205
71642;BME280;60657;50.122;14.468;2023-07-31T01:12:04;98101.41097768603;;;17.14923323414969;69.84496833752956
71642;BME280;60657;50.122;14.468;2023-07-31T01:15:10;98096.51311886645;;;17.127870603494316;70.40192263675898
71642;BME280;60657;50.122;14.468;2023-07-31T01:18:13;98105.10661275794;;;17.02906843671321;70.69947356374456
71642;BME280;60657;50.122;14.468;2023-07-31T01:21:19;98098.42745074374;;;16.975661860074766;71.40329594872969
71642;BME280;60657;50.122;14.468;2023-07-31T01:24:36;98090.92468984301;;;16.994354161898222;71.51392385748073
71642;BME280;60657;50.122;14.468;2023-07-31T01:27:58;98091.05716154604;;;16.943617914091703;71.77523460746166
71642;BME280;60657;50.122;14.468;2023-07-31T01:31:05;98093.52861194611;;;16.95429922941939;71.17822537575341
71642;BME280;60657;50.122;14.468;2023-07-31T01:34:11;98081.0836838585;;;16.89555199511711;71.05615320057984
71642;BME280;60657;50.122;14.468;2023-07-31T01:37:19;98076.78813289368;;;16.924925612268254;70.98748760204471
71642;BME280;60657;50.122;14.468;2023-07-31T01:40:21;98077.14041820385;;;16.81010147249561;69.72861829556726
71642;BME280;60657;50.122;14.468;2023-07-31T01:43:24;98083.77441794268;;;16.812771801327536;70.10055695429924
71642;BME280;60657;50.122;14.468;2023-07-31T01:46:26;98076.2291243598;;;16.863508049134047;69.76295109483482
71642;BME280;60657;50.122;14.468;2023-07-31T01:49:28;98071.2866988273;;;16.828793774319067;69.7362478065156
71642;BME280;60657;50.122;14.468;2023-07-31T01:52:30;98072.93415991461;;;16.844815747310598;70.48012512397955
71642;BME280;60657;50.122;14.468;2023-07-31T01:55:33;98062.1821860344;;;16.802090485999848;71.02563515678645
71642;BME280;60657;50.122;14.468;2023-07-31T01:58:35;98068.85925226992;;;16.66323338673991;71.40901808194094
71642;BME280;60657;50.122;14.468;2023-07-31T02:01:37;98056.89196014493;;;16.569771877622642;71.92782482642862
71642;BME280;60657;50.122;14.468;2023-07-31T02:04:40;98060.18703091929;;;16.615167467765318;71.52918287937743
71642;BME280;60657;50.122;14.468;2023-07-31T02:07:42;98064.77172366488;;;16.492332341496912;72.17578393224994
71642;BME280;60657;50.122;14.468;2023-07-31T02:10:45;98058.75218152592;;;16.567101548790724;72.20820935378042
71642;BME280;60657;50.122;14.468;2023-07-31T02:13:47;98065.55371038227;;;16.5030136568246;69.56839856565195
71642;BME280;60657;50.122;14.468;2023-07-31T02:16:49;98065.55371038227;;;16.524376287479974;71.55016403448539
71642;BME280;60657;50.122;14.468;2023-07-31T02:19:52;98055.6672507033;;;16.441596093690393;71.71610589761197
71642;BME280;60657;50.122;14.468;2023-07-31T02:22:55;98061.64274136811;;;16.3935301747158;72.33981841763944
71642;BME280;60657;50.122;14.468;2023-07-31T02:25:57;98054.35133004317;;;16.310749980926225;72.74799725337606
71642;BME280;60657;50.122;14.468;2023-07-31T02:28:59;98059.37710022522;;;16.29205767910277;72.57442587930113
71642;BME280;60657;50.122;14.468;2023-07-31T02:32:02;98055.29824970124;;;16.24933241779202;72.9330128938735
71642;BME280;60657;50.122;14.468;2023-07-31T02:35:06;98057.0684294312;;;16.243991760128175;72.02700846875716
71642;BME280;60657;50.122;14.468;2023-07-31T02:38:09;98058.59409078748;;;16.27336537727932;72.42755779354543
71642;BME280;60657;50.122;14.468;2023-07-31T02:41:11;98052.04325049274;;;16.24933241779202;72.48859388113222
71642;BME280;60657;50.122;14.468;2023-07-31T02:44:13;98057.81097792435;;;16.225299458304725;72.62973983367667
71642;BME280;60657;50.122;14.468;2023-07-31T02:47:16;98054.2689128895;;;16.318760967421987;72.24635690852216
71642;BME280;60657;50.122;14.468;2023-07-31T02:50:19;98050.0667791966;;;16.300068665598538;72.42946517128252
71642;BME280;60657;50.122;14.468;2023-07-31T02:53:21;98054.35133004317;;;16.321431296253913;72.37224383916991
71642;BME280;60657;50.122;14.468;2023-07-31T02:56:23;98055.09281600817;;;16.31609063859007;72.46570534828717
71642;BME280;60657;50.122;14.468;2023-07-31T02:59:27;98042.56929583635;;;16.268024719615475;72.56679636835278
71642;BME280;60657;50.122;14.468;2023-07-31T03:02:30;98051.58979242302;;;16.372167544060424;72.35126268406195
71642;BME280;60657;50.122;14.468;2023-07-31T03:05:32;98060.16000622376;;;16.310749980926225;72.03082322423133
71642;BME280;60657;50.122;14.468;2023-07-31T03:08:34;98052.78552365511;;;16.26268406195163;72.37987335011826
71642;BME280;60657;50.122;14.468;2023-07-31T03:11:37;98050.1906545447;;;16.300068665598538;72.0937666895552
71642;BME280;60657;50.122;14.468;2023-07-31T03:14:40;98059.49971633764;;;16.278706034943163;71.99649042496375
71642;BME280;60657;50.122;14.468;2023-07-31T03:17:42;98050.10815865225;;;16.337453269245444;71.90112153810941
71642;BME280;60657;50.122;14.468;2023-07-31T03:20:45;98061.18841989587;;;16.276035706111237;71.74471656366826
71642;BME280;60657;50.122;14.468;2023-07-31T03:23:47;98055.09281600817;;;16.372167544060424;71.51392385748073
71642;BME280;60657;50.122;14.468;2023-07-31T03:26:51;98054.2689128895;;;16.369497215228506;71.63218127718014
71642;BME280;60657;50.122;14.468;2023-07-31T03:29:53;98054.2689128895;;;16.340123598077362;71.63981078812849
71642;BME280;60657;50.122;14.468;2023-07-31T03:32:55;98057.48170142226;;;16.388189517051956;71.61882963302052
71642;BME280;60657;50.122;14.468;2023-07-31T03:35:58;98052.45530810917;;;16.3935301747158;71.36514839398795
71642;BME280;60657;50.122;14.468;2023-07-31T03:39:00;98050.72421191451;;;16.4175631342031;70.96841382467383
71642;BME280;60657;50.122;14.468;2023-07-31T03:42:03;98049.1599140265;;;16.377508201724268;70.52208743419547
71642;BME280;60657;50.122;14.468;2023-07-31T03:45:06;98052.49689193482;;;16.369497215228506;69.99374380102235
71642;BME280;60657;50.122;14.468;2023-07-31T03:48:10;98055.99917846786;;;16.318760967421987;69.64660105287251
71642;BME280;60657;50.122;14.468;2023-07-31T03:51:12;98060.20106324411;;;16.34813458457313;69.7515068284123
71642;BME280;60657;50.122;14.468;2023-07-31T03:54:15;98061.72550784818;;;16.412222476539256;69.51499198901351
71642;BME280;60657;50.122;14.468;2023-07-31T03:57:17;98055.95799440649;;;16.385519188220037;69.48447394522012
71642;BME280;60657;50.122;14.468;2023-07-31T04:00:20;98062.67297356013;;;16.364156557564662;69.19836728465705
71642;BME280;60657;50.122;14.468;2023-07-31T04:03:22;98069.42866671656;;;16.35080491340505;69.17547875181201
71642;BME280;60657;50.122;14.468;2023-07-31T04:06:25;98062.71397189019;;;16.268024719615475;69.2365148393988
71642;BME280;60657;50.122;14.468;2023-07-31T04:09:27;98059.37710022522;;;16.34813458457313;69.04577706569009
71642;BME280;60657;50.122;14.468;2023-07-31T04:12:29;98057.56454661566;;;16.342793926909287;68.4258793011368
71642;BME280;60657;50.122;14.468;2023-07-31T04:15:32;98064.85526922159;;;16.492332341496912;68.85503929198138
71642;BME280;60657;50.122;14.468;2023-07-31T04:18:34;98054.54842791063;;;16.57778286411841;68.71007858396277
71642;BME280;60657;50.122;14.468;2023-07-31T04:21:37;98057.75842700667;;;16.644541084916455;68.50980392156863
71642;BME280;60657;50.122;14.468;2023-07-31T04:24:39;98048.39710009811;;;16.70862897688258;68.54795147631037
71642;BME280;60657;50.122;14.468;2023-07-31T04:27:43;98044.8421015681;;;16.743343251697567;68.34195468070497
71642;BME280;60657;50.122;14.468;2023-07-31T04:30:46;98055.46139040131;;;16.83680476081483;67.85366598001067
71642;BME280;60657;50.122;14.468;2023-07-31T04:33:49;98053.81415509024;;;16.87953002212558;68.14930952925917
71642;BME280;60657;50.122;14.468;2023-07-31T04:36:51;98056.19690115207;;;16.85282673380636;68.09018081940948
71642;BME280;60657;50.122;14.468;2023-07-31T04:39:54;98051.94623742375;;;16.898222323949035;68.26184481574731
71642;BME280;60657;50.122;14.468;2023-07-31T04:42:56;98046.00354782249;;;16.91157396810864;68.22178988326849
71642;BME280;60657;50.122;14.468;2023-07-31T04:45:58;98048.47404833228;;;16.908903639276723;68.17219806210421
71642;BME280;60657;50.122;14.468;2023-07-31T04:49:01;98050.98923742546;;;16.91157396810864;67.77164873731594
71642;BME280;60657;50.122;14.468;2023-07-31T04:52:04;98051.8127649306;;;16.91958495460441;68.30380712596323
71642;BME280;60657;50.122;14.468;2023-07-31T04:55:07;98040.56689852905;;;17.04776073853666;67.92996108949416
71642;BME280;60657;50.122;14.468;2023-07-31T04:58:10;98045.32401887985;;;17.13321126115816;68.0863660639353
71642;BME280;60657;50.122;14.468;2023-07-31T05:01:12;98036.72097960251;;;17.202639810788128;68.04058899824521
71642;BME280;60657;50.122;14.468;2023-07-31T05:04:15;98040.88377359947;;;17.21599145494774;67.90707255664911
71642;BME280;60657;50.122;14.468;2023-07-31T05:07:17;98045.23191961752;;;17.181277180132753;68.18936446173801
71642;BME280;60657;50.122;14.468;2023-07-31T05:10:20;98047.84002766266;;;17.111848630502784;68.27901121538109
71642;BME280;60657;50.122;14.468;2023-07-31T05:13:22;98045.50716155834;;;17.07446402685588;68.101625085832
71642;BME280;60657;50.122;14.468;2023-07-31T05:16:25;98052.04864395705;;;17.10650797283894;67.76592660410468
71642;BME280;60657;50.122;14.468;2023-07-31T05:19:27;98053.7412143873;;;17.079804684519722;67.90516517891203
71642;BME280;60657;50.122;14.468;2023-07-31T05:22:30;98046.10135392586;;;17.167925535973147;68.05775539787899
71642;BME280;60657;50.122;14.468;2023-07-31T05:25:32;98051.679621789;;;17.306782635233084;67.77927824826429
71642;BME280;60657;50.122;14.468;2023-07-31T05:28:35;98055.65632277199;;;17.309452964065002;67.61905851834898
71642;BME280;60657;50.122;14.468;2023-07-31T05:31:38;98052.22242876445;;;17.34416723887999;67.334859235523
71642;BME280;60657;50.122;14.468;2023-07-31T05:34:40;98056.47964063473;;;17.28542000457771;67.41115434500648
71642;BME280;60657;50.122;14.468;2023-07-31T05:37:42;98059.7729471298;;;17.354848554207678;67.23567559319447
71642;BME280;60657;50.122;14.468;2023-07-31T05:40:45;98046.9519827136;;;17.40558480201419;67.41306172274358
71642;BME280;60657;50.122;14.468;2023-07-31T05:43:48;98052.52306786207;;;17.493705653467615;67.44548714427405
71642;BME280;60657;50.122;14.468;2023-07-31T05:46:50;98048.26302886962;;;17.555123216601814;67.39589532310978
71642;BME280;60657;50.122;14.468;2023-07-31T05:49:53;98048.94108888379;;;17.605859464408333;67.09643701838712
71642;BME280;60657;50.122;14.468;2023-07-31T05:52:55;98045.93345295615;;;17.790112153810938;66.5547417410544
71642;BME280;60657;50.122;14.468;2023-07-31T05:55:58;98052.01790559918;;;17.939650568398562;66.45937285420004
71642;BME280;60657;50.122;14.468;2023-07-31T05:59:00;98041.27011191225;;;17.89158464942397;66.13130388342107
71642;BME280;60657;50.122;14.468;2023-07-31T06:02:03;98044.92724947086;;;18.05714503700313;66.16754406042573
71642;BME280;60657;50.122;14.468;2023-07-31T06:05:07;98029.75850153936;;;18.022430762188144;65.70214389257649
71642;BME280;60657;50.122;14.468;2023-07-31T06:08:09;98027.23892412949;;;18.094529640650038;66.1274891279469
71642;BME280;60657;50.122;14.468;2023-07-31T06:11:12;98017.05660428175;;;18.0411230640116;65.21194781414512
71642;BME280;60657;50.122;14.468;2023-07-31T06:14:15;98020.55460835327;;;18.035782406347757;64.8743419546807
71642;BME280;60657;50.122;14.468;2023-07-31T06:17:17;98014.79663151233;;;17.998397802700843;64.6683451590753
71642;BME280;60657;50.122;14.468;2023-07-31T06:20:19;98014.32756068015;;;18.147936217288475;64.59014267185474
71642;BME280;60657;50.122;14.468;2023-07-31T06:23:22;98018.28184271125;;;18.294804303044174;64.22201876859694
71642;BME280;60657;50.122;14.468;2023-07-31T06:26:25;98012.76133395529;;;18.412298771648736;64.03891050583658
71642;BME280;60657;50.122;14.468;2023-07-31T06:29:27;98004.10625998236;;;18.452353704127567;63.96833752956435
71642;BME280;60657;50.122;14.468;2023-07-31T06:32:30;97992.15909575486;;;18.471046005951017;63.63073167009995
71642;BME280;60657;50.122;14.468;2023-07-31T06:35:32;98000.21463312708;;;18.63126573586633;63.31792172121767
71642;BME280;60657;50.122;14.468;2023-07-31T06:38:35;97984.80605530615;;;18.727397573815516;63.319829098954756
71642;BME280;60657;50.122;14.468;2023-07-31T06:41:37;97992.96916186398;;;18.69802395666438;62.7685969329366
71642;BME280;60657;50.122;14.468;2023-07-31T06:44:40;97983.04992573289;;;18.700694285496297;62.86968795300221
71642;BME280;60657;50.122;14.468;2023-07-31T06:47:43;97984.46795971972;;;18.751430533302816;63.14053559166858
71642;BME280;60657;50.122;14.468;2023-07-31T06:50:45;97986.33751060243;;;18.641947051194016;63.36751354238193
71642;BME280;60657;50.122;14.468;2023-07-31T06:53:47;97983.47589060424;;;18.804837109941253;63.02800030518044
71642;BME280;60657;50.122;14.468;2023-07-31T06:56:50;97984.12667299212;;;18.84222171358816;63.11955443656062
71642;BME280;60657;50.122;14.468;2023-07-31T06:59:52;97996.7393838322;;;18.82619974059663;63.63645380331121
71642;BME280;60657;50.122;14.468;2023-07-31T07:02:55;97996.45400815716;;;18.890287632562753;63.23018234531166
71642;BME280;60657;50.122;14.468;2023-07-31T07:05:58;97987.18442888293;;;18.86091401541161;62.45769436179141
71642;BME280;60657;50.122;14.468;2023-07-31T07:09:00;97994.81031871641;;;18.911650263218128;61.87594415197985
71642;BME280;60657;50.122;14.468;2023-07-31T07:12:04;97993.29488782136;;;19.125276569771884;61.55931944762341
71642;BME280;60657;50.122;14.468;2023-07-31T07:15:07;97997.05163066757;;;19.184023804074158;61.52117189288167
71642;BME280;60657;50.122;14.468;2023-07-31T07:18:12;97985.31271007234;;;19.119935912108033;61.36476691844052
71642;BME280;60657;50.122;14.468;2023-07-31T07:21:14;97991.65145897068;;;19.029144731822697;61.452506294346534
71642;BME280;60657;50.122;14.468;2023-07-31T07:24:17;97990.82974969802;;;19.005111772335397;61.05767910276951
71642;BME280;60657;50.122;14.468;2023-07-31T07:27:19;97989.71547538404;;;19.138628213931483;61.47730220492866
71642;BME280;60657;50.122;14.468;2023-07-31T07:30:22;97993.29488782136;;;19.00244144350347;61.35332265201801
71642;BME280;60657;50.122;14.468;2023-07-31T07:33:24;97999.3958102031;;;18.951705195696952;61.52689402609293
71642;BME280;60657;50.122;14.468;2023-07-31T07:36:27;97991.06224663928;;;18.973067826352327;61.43152513923857
71642;BME280;60657;50.122;14.468;2023-07-31T07:39:30;97989.89128281573;;;19.095902952620733;61.71572442206454
71642;BME280;60657;50.122;14.468;2023-07-31T07:42:32;97992.0037562082;;;19.168001831082634;61.61081864652476
71642;BME280;60657;50.122;14.468;2023-07-31T07:45:35;97987.94284259753;;;19.394979781795982;61.183566033417264
71642;BME280;60657;50.122;14.468;2023-07-31T07:48:37;97996.24994474648;;;19.63263904783703;60.304264896620126
71642;BME280;60657;50.122;14.468;2023-07-31T07:51:40;97983.62224180791;;;19.65133134966048;60.34241245136187
71642;BME280;60657;50.122;14.468;2023-07-31T07:54:42;97994.9125503452;;;19.52048523689632;60.92607003891051
71642;BME280;60657;50.122;14.468;2023-07-31T07:57:45;97991.1373698285;;;19.627298390173195;60.30235751888304
71642;BME280;60657;50.122;14.468;2023-07-31T08:00:49;97991.56591129758;;;19.47241931792172;60.20889600976578
71642;BME280;60657;50.122;14.468;2023-07-31T08:03:52;98004.77020245537;;;19.55786984054322;60.67238879987792
71642;BME280;60657;50.122;14.468;2023-07-31T08:06:55;98001.54515995993;;;19.53383688105592;60.77157244220645
71642;BME280;60657;50.122;14.468;2023-07-31T08:09:57;97999.41269110289;;;19.67536430914778;60.84214541847868
71642;BME280;60657;50.122;14.468;2023-07-31T08:13:00;97990.26720262125;;;19.88899061570153;60.063935301747165
71642;BME280;60657;50.122;14.468;2023-07-31T08:16:03;97991.27638325495;;;19.814221408407718;60.107804989700156
71642;BME280;60657;50.122;14.468;2023-07-31T08:19:06;98002.51316835417;;;19.67536430914778;59.8655680170901
71642;BME280;60657;50.122;14.468;2023-07-31T08:22:08;97998.34444675714;;;19.723430228122382;59.817883573662925
71642;BME280;60657;50.122;14.468;2023-07-31T08:25:11;98007.81139878208;;;19.629968719005106;60.07728694590676
71642;BME280;60657;50.122;14.468;2023-07-31T08:28:14;98003.12722627571;;;19.53383688105592;60.58846417944609
71642;BME280;60657;50.122;14.468;2023-07-31T08:31:16;98000.96632873589;;;19.419012741283282;60.920347905699245
71642;BME280;60657;50.122;14.468;2023-07-31T08:34:19;97999.44403968417;;;19.44838635843442;60.9565880827039
71642;BME280;60657;50.122;14.468;2023-07-31T08:37:22;98006.43685319411;;;19.330891889829857;61.11299305714503
71642;BME280;60657;50.122;14.468;2023-07-31T08:40:24;98016.53548369632;;;19.341573205157545;61.227435721370256
71642;BME280;60657;50.122;14.468;2023-07-31T08:43:27;98000.84517914327;;;19.47241931792172;60.95277332722972
71642;BME280;60657;50.122;14.468;2023-07-31T08:46:32;98012.70980566676;;;19.52315556572823;60.94514381628137
71642;BME280;60657;50.122;14.468;2023-07-31T08:49:35;98016.75754697349;;;19.451056687266345;60.773479819943546
71642;BME280;60657;50.122;14.468;2023-07-31T08:52:40;98007.78019003749;;;19.485770962081332;61.088197146562905
71642;BME280;60657;50.122;14.468;2023-07-31T08:55:44;98005.0134145958;;;19.47241931792172;61.31326771953918
71642;BME280;60657;50.122;14.468;2023-07-31T08:58:48;98006.41319229618;;;19.584573128862445;61.389562829022665
71642;BME280;60657;50.122;14.468;2023-07-31T09:01:53;98004.52556668992;;;19.621957732509344;61.09773403524834
71642;BME280;60657;50.122;14.468;2023-07-31T09:04:57;97999.35110314931;;;19.69138628213932;61.37239642938887
71642;BME280;60657;50.122;14.468;2023-07-31T09:08:01;98003.64274585163;;;19.640650034332793;61.33806363012131
71642;BME280;60657;50.122;14.468;2023-07-31T09:11:07;98006.1684759109;;;19.64866102082857;61.41626611734188
71642;BME280;60657;50.122;14.468;2023-07-31T09:14:09;98010.85090290594;;;19.77149614709697;61.44678416113527
71642;BME280;60657;50.122;14.468;2023-07-31T09:17:12;98010.35386343724;;;19.89433127336538;61.27512016479744
71642;BME280;60657;50.122;14.468;2023-07-31T09:20:16;98001.76454587992;;;19.953078507667655;61.06912336919204
71642;BME280;60657;50.122;14.468;2023-07-31T09:23:20;97994.1212924915;;;19.93705653467613;61.03669794766155
71642;BME280;60657;50.122;14.468;2023-07-31T09:26:31;97999.04850299789;;;19.966430151827268;60.819256885633635
71642;BME280;60657;50.122;14.468;2023-07-31T09:29:35;97991.1496431507;;;20.067902647440306;60.96040283817807
71642;BME280;60657;50.122;14.468;2023-07-31T09:32:38;97991.6502408885;;;20.05989166094453;60.56557564660105
71642;BME280;60657;50.122;14.468;2023-07-31T09:35:40;97989.5558314136;;;20.196078431372555;60.60372320134279
71642;BME280;60657;50.122;14.468;2023-07-31T09:38:43;97988.08121730069;;;20.38300144960708;60.46829938200962
71642;BME280;60657;50.122;14.468;2023-07-31T09:41:47;97980.03186891029;;;20.447089341573204;60.14213778896773
71642;BME280;60657;50.122;14.468;2023-07-31T09:45:04;97980.31677309252;;;20.599298084992753;60.090638590066376
71642;BME280;60657;50.122;14.468;2023-07-31T09:48:10;97962.40796441388;;;20.692759594110015;59.72060730907148
71642;BME280;60657;50.122;14.468;2023-07-31T09:51:14;97961.44696916954;;;20.877012283512627;59.32387273975738
71642;BME280;60657;50.122;14.468;2023-07-31T09:54:18;97958.82804056212;;;21.077286945906764;58.74975204089418
71642;BME280;60657;50.122;14.468;2023-07-31T09:57:21;97948.5246030906;;;21.28290226596475;58.2309452964065
71642;BME280;60657;50.122;14.468;2023-07-31T10:00:24;97933.21001235013;;;21.640726329442288;57.08842603189136
71642;BME280;60657;50.122;14.468;2023-07-31T10:03:27;97934.00679833136;;;21.902418554970623;56.37888151369497
71642;BME280;60657;50.122;14.468;2023-07-31T10:06:34;97913.73021741501;;;22.335011825741972;56.47234302281224
71642;BME280;60657;50.122;14.468;2023-07-31T10:09:38;97901.49790113617;;;22.802319371328295;55.40039673456931
71642;BME280;60657;50.122;14.468;2023-07-31T10:12:42;97906.89632107821;;;22.997253376058595;54.73281452658885
71642;BME280;60657;50.122;14.468;2023-07-31T10:15:48;97891.16469569791;;;23.050659952697032;54.39711604486153
71642;BME280;60657;50.122;14.468;2023-07-31T10:18:52;97886.82147655038;;;23.050659952697032;54.152971694514385
71642;BME280;60657;50.122;14.468;2023-07-31T10:21:57;97878.86755341051;;;23.077363241016258;53.983215075913634
71642;BME280;60657;50.122;14.468;2023-07-31T10:25:01;97881.11941634369;;;23.328374151216906;53.285114824139775
71642;BME280;60657;50.122;14.468;2023-07-31T10:28:05;97877.92769641742;;;23.651483939879455;52.81208514534218
71642;BME280;60657;50.122;14.468;2023-07-31T10:31:08;97869.51457408571;;;23.74227512016479;53.08674753948272
71642;BME280;60657;50.122;14.468;2023-07-31T10:34:11;97872.8737824134;;;23.622110322728318;51.82406347753109
71642;BME280;60657;50.122;14.468;2023-07-31T10:37:19;97847.74248172977;;;23.822384985122454;51.93469138628214
71642;BME280;60657;50.122;14.468;2023-07-31T10:40:23;97860.83125041069;;;24.01998931868468;51.892729076066225
71642;BME280;60657;50.122;14.468;2023-07-31T10:43:28;97864.73636074249;;;24.27634088654918;50.50415808346685
71642;BME280;60657;50.122;14.468;2023-07-31T10:46:32;97846.84630502254;;;24.054703593499653;51.01342793926909
71642;BME280;60657;50.122;14.468;2023-07-31T10:49:35;97844.93892771816;;;23.939879453727016;51.18699931334402
71642;BME280;60657;50.122;14.468;2023-07-31T10:52:37;97843.30422484952;;;23.89448386358434;51.135500114442664
71642;BME280;60657;50.122;14.468;2023-07-31T10:55:41;97830.04559332192;;;24.05203326466774;50.86846723125048
71642;BME280;60657;50.122;14.468;2023-07-31T10:58:45;97828.68270282984;;;23.680857557030592;51.04966811627375
71642;BME280;60657;50.122;14.468;2023-07-31T11:01:51;97838.55485576064;;;23.53665980010682;51.83360036621652
71642;BME280;60657;50.122;14.468;2023-07-31T11:05:05;97820.14175303101;;;23.616769665064467;50.893263141832605